Terminal Aerodrome Forecast
Issued by NWS

Home | Current Version | Previous Version | Text Only | Print | Product List | Glossary On
Versions: 1 2 3 4 5 6 7 8 9 10 11 12 13 14 15 16 17 18 19 20 21 22 23 24 25 26 27
000
FTUS44 KLZK 220407 AAB
TAFLIT
TAF AMD
KLIT 220407Z 2204/2224 35005KT P6SM BKN005 OVC035
     FM220500 02002KT 2SM BR SCT003 OVC005
     FM220900 02002KT 1/2SM FG OVC003
     FM221400 35004KT 3SM BR BKN015
     FM221600 02006KT P6SM FEW025 SCT050 SCT250
     FM222000 14004KT P6SM SCT250=

USA.gov is the U.S. government's official web portal to all federal, state and local government web resources and services.